createdAt,value
2018-02-23T00:02:15.605Z,5.32
2018-02-23T00:04:43.694Z,5.65
2018-02-23T00:07:12.015Z,7.93
2018-02-23T00:09:39.566Z,6.75
2018-02-23T00:12:08.082Z,9.40
2018-02-23T00:14:35.919Z,4.45
2018-02-23T00:17:03.465Z,13.38
2018-02-23T00:19:31.080Z,3.62
2018-02-23T00:21:58.637Z,6.30
2018-02-23T00:24:26.185Z,4.15
2018-02-23T00:26:54.426Z,5.68
2018-02-23T00:29:21.975Z,4.78
2018-02-23T00:31:49.547Z,9.48
2018-02-23T00:34:17.254Z,5.62
2018-02-23T00:36:44.839Z,16.08
2018-02-23T00:39:13.282Z,4.47
2018-02-23T00:41:41.259Z,4.40
2018-02-23T00:44:08.813Z,6.53
2018-02-23T00:46:36.358Z,7.93
2018-02-23T00:49:04.660Z,5.47
2018-02-23T00:51:32.282Z,6.25
2018-02-23T00:53:59.840Z,6.35
2018-02-23T00:56:27.638Z,8.73
2018-02-23T00:58:55.190Z,4.82
2018-02-23T01:01:23.385Z,10.30
2018-02-23T01:03:51.656Z,6.87
2018-02-23T01:06:19.210Z,7.28
2018-02-23T01:08:46.766Z,5.00
2018-02-23T01:11:14.642Z,8.23
2018-02-23T01:13:42.604Z,4.78
2018-02-23T01:16:10.152Z,9.15
2018-02-23T01:18:37.760Z,8.50
2018-02-23T01:21:05.309Z,5.12
2018-02-23T01:23:33.627Z,9.50
2018-02-23T01:26:02.039Z,7.80
2018-02-23T01:28:29.593Z,7.50
2018-02-23T01:30:57.138Z,7.93
2018-02-23T01:33:24.865Z,7.30
2018-02-23T01:35:52.425Z,9.55
2018-02-23T01:38:20.314Z,8.80
2018-02-23T01:40:48.217Z,11.73
2018-02-23T01:43:15.798Z,6.37
2018-02-23T01:45:43.347Z,8.57
2018-02-23T01:48:10.967Z,10.77
2018-02-23T01:50:50.445Z,4.50
2018-02-23T01:53:19.550Z,7.07
2018-02-23T01:55:47.106Z,6.50
2018-02-23T01:58:14.667Z,7.28
2018-02-23T02:00:42.823Z,5.93
2018-02-23T02:03:10.379Z,4.07
2018-02-23T02:05:37.931Z,4.30
2018-02-23T02:08:05.810Z,6.55
2018-02-23T02:10:33.361Z,6.50
2018-02-23T02:13:01.311Z,5.87
2018-02-23T02:15:29.406Z,4.87
2018-02-23T02:17:56.967Z,5.82
2018-02-23T02:20:24.520Z,11.60
2018-02-23T02:22:52.402Z,7.55
2018-02-23T02:25:20.108Z,6.05
2018-02-23T02:27:47.658Z,8.43
2018-02-23T02:30:15.369Z,4.75
2018-02-23T02:32:42.931Z,9.52
2018-02-23T02:35:10.474Z,5.32
2018-02-23T02:37:38.586Z,5.03
2018-02-23T02:40:06.275Z,7.95
2018-02-23T02:42:33.830Z,11.85
2018-02-23T02:45:01.702Z,6.72
2018-02-23T02:47:29.285Z,5.90
2018-02-23T02:49:56.979Z,25.92
2018-02-23T02:52:24.714Z,7.22
2018-02-23T02:54:52.821Z,13.48
2018-02-23T02:57:20.386Z,12.27
2018-02-23T02:59:49.455Z,13.00
2018-02-23T03:02:17.240Z,4.78
2018-02-23T03:04:45.071Z,7.37
2018-02-23T03:07:12.628Z,6.87
2018-02-23T03:09:40.842Z,5.78
2018-02-23T03:12:08.459Z,6.40
2018-02-23T03:14:36.015Z,11.07
2018-02-23T03:17:03.791Z,8.10
2018-02-23T03:19:31.695Z,6.05
2018-02-23T03:21:59.251Z,8.73
2018-02-23T03:24:27.571Z,4.57
2018-02-23T03:26:55.524Z,5.25
2018-02-23T03:29:23.941Z,9.13
2018-02-23T03:31:51.503Z,25.17
2018-02-23T03:34:19.110Z,22.25
2018-02-23T03:36:46.676Z,10.15
2018-02-23T03:39:14.233Z,4.43
2018-02-23T03:41:42.286Z,11.05
2018-02-23T03:44:10.171Z,13.55
2018-02-23T03:46:38.498Z,10.05
2018-02-23T03:49:06.294Z,9.80
2018-02-23T03:51:33.854Z,5.62
2018-02-23T03:54:01.488Z,10.00
2018-02-23T03:56:29.254Z,6.50
2018-02-23T03:58:56.817Z,5.72
2018-02-23T04:01:24.422Z,6.75
2018-02-23T04:03:52.969Z,14.73
2018-02-23T04:06:20.634Z,10.23
2018-02-23T04:08:48.194Z,7.35
2018-02-23T04:11:16.070Z,7.80
2018-02-23T04:13:43.622Z,10.45
2018-02-23T04:16:11.176Z,8.18
2018-02-23T04:18:39.472Z,10.88
2018-02-23T04:21:07.031Z,10.77
2018-02-23T04:23:36.093Z,9.93
2018-02-23T04:26:03.888Z,8.52
2018-02-23T04:28:31.492Z,17.45
2018-02-23T04:30:59.105Z,11.23
2018-02-23T04:33:26.874Z,16.50
2018-02-23T04:35:54.426Z,9.52
2018-02-23T04:38:21.977Z,12.68
2018-02-23T04:40:49.854Z,11.75
2018-02-23T04:43:17.413Z,18.65
2018-02-23T04:45:44.966Z,10.55
2018-02-23T04:48:12.655Z,9.90
2018-02-23T04:50:41.021Z,11.73
2018-02-23T04:53:08.578Z,12.00
2018-02-23T04:55:36.442Z,20.70
2018-02-23T04:58:03.994Z,20.55
2018-02-23T05:00:32.326Z,37.90
2018-02-23T05:03:01.247Z,24.15
2018-02-23T05:05:28.802Z,26.75
2018-02-23T05:07:56.556Z,14.45
2018-02-23T05:10:24.618Z,16.27
2018-02-23T05:12:52.171Z,13.80
2018-02-23T05:15:19.724Z,23.73
2018-02-23T05:17:48.262Z,20.95
2018-02-23T05:20:15.817Z,19.52
2018-02-23T05:22:43.376Z,15.27
2018-02-23T05:25:11.251Z,15.18
2018-02-23T05:27:38.806Z,18.37
2018-02-23T05:30:06.361Z,17.45
2018-02-23T05:32:34.021Z,16.37
2018-02-23T05:35:02.386Z,16.75
2018-02-23T05:37:29.988Z,27.95
2018-02-23T05:39:57.678Z,13.45
2018-02-23T05:42:25.259Z,16.55
2018-02-23T05:44:52.817Z,21.05
2018-02-23T05:47:20.418Z,15.68
2018-02-23T05:49:47.975Z,12.90
2018-02-23T05:52:17.031Z,15.95
2018-02-23T05:54:44.634Z,13.88
2018-02-23T05:57:12.274Z,19.02
2018-02-23T05:59:39.811Z,21.33
2018-02-23T06:02:07.723Z,12.05
2018-02-23T06:04:35.274Z,16.02
2018-02-23T06:07:02.821Z,9.25
2018-02-23T06:09:30.396Z,19.67
2018-02-23T06:11:58.460Z,14.45
2018-02-23T06:14:26.014Z,30.67
2018-02-23T06:16:53.566Z,22.87
2018-02-23T06:19:27.084Z,14.73
2018-02-23T06:21:58.936Z,35.78
2018-02-23T06:24:26.487Z,15.77
2018-02-23T06:26:55.498Z,20.40
2018-02-23T06:29:24.294Z,9.98
2018-02-23T06:31:51.883Z,11.18
2018-02-23T06:34:19.702Z,7.90
2018-02-23T06:36:47.249Z,11.63
2018-02-23T06:39:14.795Z,9.77
2018-02-23T06:41:42.397Z,11.25
2018-02-23T06:44:09.950Z,12.57
2018-02-23T06:46:37.507Z,19.83
2018-02-23T06:49:06.670Z,9.00
2018-02-23T06:51:34.217Z,12.63
2018-02-23T06:54:01.769Z,11.63
2018-02-23T06:56:29.377Z,14.82
2018-02-23T06:58:56.929Z,8.57
2018-02-23T07:01:24.484Z,10.55
2018-02-23T07:03:52.316Z,18.12
2018-02-23T07:06:20.606Z,11.82
2018-02-23T07:08:48.230Z,17.62
2018-02-23T07:11:16.865Z,14.48
2018-02-23T07:13:44.427Z,8.93
2018-02-23T07:16:12.763Z,9.30
2018-02-23T07:18:40.525Z,6.65
2018-02-23T07:21:08.935Z,12.45
2018-02-23T07:23:36.769Z,13.27
2018-02-23T07:26:05.323Z,11.98
2018-02-23T07:28:32.877Z,12.85
2018-02-23T07:31:00.430Z,6.43
2018-02-23T07:33:28.179Z,7.28
2018-02-23T07:35:55.726Z,9.45
2018-02-23T07:38:23.275Z,7.60
2018-02-23T07:40:51.091Z,9.68
2018-02-23T07:43:18.645Z,13.13
2018-02-23T07:45:46.983Z,11.50
2018-02-23T07:48:14.717Z,9.95
2018-02-23T07:50:43.030Z,8.27
2018-02-23T07:53:10.605Z,9.93
2018-02-23T07:55:40.921Z,10.18
2018-02-23T07:58:08.465Z,9.65
2018-02-23T08:00:36.009Z,12.23
2018-02-23T08:03:03.721Z,7.28
2018-02-23T08:05:31.268Z,5.05
2018-02-23T08:07:59.062Z,10.30
2018-02-23T08:10:26.661Z,8.38
2018-02-23T08:12:54.210Z,7.10
2018-02-23T08:15:22.517Z,7.90
2018-02-23T08:17:50.389Z,5.75
2018-02-23T08:20:18.559Z,6.53
2018-02-23T08:22:52.213Z,5.97
2018-02-23T08:25:19.822Z,7.53
2018-02-23T08:27:47.402Z,5.80
2018-02-23T08:30:14.954Z,7.10
2018-02-23T08:32:45.293Z,7.90
2018-02-23T08:35:15.582Z,6.10
2018-02-23T08:37:43.272Z,6.20
2018-02-23T08:40:10.814Z,7.40
2018-02-23T08:42:38.557Z,9.32
2018-02-23T08:45:06.166Z,7.10
2018-02-23T08:47:33.713Z,4.62
2018-02-23T08:50:01.263Z,10.70
2018-02-23T08:52:32.729Z,4.70
2018-02-23T08:55:01.770Z,5.22
2018-02-23T08:57:30.123Z,4.32
2018-02-23T08:59:57.810Z,4.80
2018-02-23T09:02:25.353Z,8.57
2018-02-23T09:04:52.893Z,4.95
2018-02-23T09:07:20.749Z,5.12
2018-02-23T09:09:48.293Z,5.85
2018-02-23T09:12:15.834Z,3.50
2018-02-23T09:14:43.449Z,9.70
2018-02-23T09:17:12.501Z,6.10
2018-02-23T09:19:40.056Z,3.80
2018-02-23T09:22:10.819Z,3.75
2018-02-23T09:24:38.395Z,3.35
2018-02-23T09:27:07.449Z,14.75
2018-02-23T09:29:35.148Z,4.57
2018-02-23T09:32:02.698Z,7.80
2018-02-23T09:34:38.242Z,5.05
2018-02-23T09:37:05.792Z,22.45
2018-02-23T09:39:33.349Z,4.25
2018-02-23T09:42:08.802Z,7.53
2018-02-23T09:44:36.349Z,4.53
2018-02-23T09:47:03.895Z,3.60
2018-02-23T09:49:31.805Z,5.15
2018-02-23T09:51:59.351Z,2.70
2018-02-23T09:54:26.970Z,4.47
2018-02-23T09:56:54.593Z,3.62
2018-02-23T09:59:22.905Z,5.68
2018-02-23T10:01:50.454Z,5.50
2018-02-23T10:04:18.062Z,2.92
2018-02-23T10:06:45.690Z,3.70
2018-02-23T10:09:13.246Z,4.53
2018-02-23T10:11:40.837Z,2.55
2018-02-23T10:14:08.397Z,10.23
2018-02-23T10:16:35.946Z,3.97
2018-02-23T10:19:04.065Z,3.60
2018-02-23T10:21:32.376Z,4.62
2018-02-23T10:24:04.166Z,1.77
2018-02-23T10:26:31.933Z,5.60
2018-02-23T10:28:59.475Z,1.80
2018-02-23T10:31:27.231Z,2.87
2018-02-23T10:33:55.096Z,2.20
2018-02-23T10:36:25.214Z,3.45
2018-02-23T10:38:52.831Z,2.78
2018-02-23T10:41:21.597Z,3.25
2018-02-23T10:43:49.229Z,8.30
2018-02-23T10:46:16.784Z,2.28
2018-02-23T10:48:44.375Z,2.22
2018-02-23T10:51:13.869Z,2.47
2018-02-23T10:53:41.417Z,1.55
2018-02-23T10:56:09.030Z,2.35
2018-02-23T10:58:37.350Z,13.10
2018-02-23T11:01:04.898Z,5.82
2018-02-23T11:03:32.597Z,2.40
2018-02-23T11:06:00.149Z,2.35
2018-02-23T11:08:27.699Z,1.40
2018-02-23T11:10:55.577Z,4.35
2018-02-23T11:13:24.688Z,3.50
2018-02-23T11:15:52.228Z,2.47
2018-02-23T11:18:19.981Z,2.22
2018-02-23T11:20:47.646Z,2.50
2018-02-23T11:23:18.338Z,3.40
2018-02-23T11:25:46.268Z,1.60
2018-02-23T11:28:13.814Z,2.22
2018-02-23T11:30:41.408Z,1.67
2018-02-23T11:33:09.454Z,1.80
2018-02-23T11:35:36.998Z,1.75
2018-02-23T11:38:04.548Z,1.45
2018-02-23T11:40:32.169Z,1.85
2018-02-23T11:43:05.225Z,1.55
2018-02-23T11:45:33.093Z,2.25
2018-02-23T11:48:00.640Z,2.03
2018-02-23T11:50:28.192Z,1.40
2018-02-23T11:52:57.725Z,2.33
2018-02-23T11:55:25.273Z,1.62
2018-02-23T11:58:04.918Z,2.70
2018-02-23T12:00:32.477Z,1.37
2018-02-23T12:03:00.247Z,1.27
2018-02-23T12:05:27.858Z,2.03
2018-02-23T12:07:55.409Z,1.50
2018-02-23T12:10:23.721Z,1.62
2018-02-23T12:12:51.537Z,1.15
2018-02-23T12:15:19.886Z,2.33
2018-02-23T12:17:47.430Z,1.33
2018-02-23T12:20:15.045Z,0.90
2018-02-23T12:22:42.601Z,1.35
2018-02-23T12:25:10.923Z,7.53
2018-02-23T12:27:38.508Z,1.10
2018-02-23T12:30:06.238Z,1.20
2018-02-23T12:32:36.142Z,3.53
2018-02-23T12:35:03.725Z,2.17
2018-02-23T12:37:31.276Z,1.37
2018-02-23T12:39:59.029Z,1.58
2018-02-23T12:42:26.697Z,1.33
2018-02-23T12:44:54.241Z,1.15
2018-02-23T12:47:21.788Z,3.65
2018-02-23T12:49:49.409Z,1.10
2018-02-23T12:52:18.469Z,1.50
2018-02-23T12:54:46.013Z,1.50
2018-02-23T12:57:13.720Z,1.80
2018-02-23T12:59:41.264Z,1.70
2018-02-23T13:02:09.411Z,3.08
2018-02-23T13:04:37.009Z,1.98
2018-02-23T13:07:04.545Z,4.07
2018-02-23T13:09:32.090Z,1.60
2018-02-23T13:12:01.746Z,2.65
2018-02-23T13:14:35.278Z,1.80
2018-02-23T13:17:02.989Z,2.42
2018-02-23T13:19:30.534Z,1.92
2018-02-23T13:21:58.081Z,6.28
2018-02-23T13:24:25.654Z,2.10
2018-02-23T13:26:53.691Z,1.65
2018-02-23T13:29:21.998Z,1.20
2018-02-23T13:31:49.587Z,5.18
2018-02-23T13:34:17.126Z,1.52
2018-02-23T13:36:44.873Z,2.55
2018-02-23T13:39:12.807Z,2.80
2018-02-23T13:41:41.155Z,1.15
2018-02-23T13:44:08.746Z,1.20
2018-02-23T13:46:37.478Z,2.20
2018-02-23T13:49:05.115Z,1.08
2018-02-23T13:51:32.707Z,2.10
2018-02-23T13:54:12.528Z,4.70
2018-02-23T13:56:42.379Z,1.75
2018-02-23T13:59:09.959Z,3.17
2018-02-23T14:01:38.078Z,2.45
2018-02-23T14:04:08.515Z,3.78
2018-02-23T14:06:36.100Z,1.92
2018-02-23T14:09:04.003Z,1.40
2018-02-23T14:11:32.359Z,1.60
2018-02-23T14:14:03.078Z,1.45
2018-02-23T14:16:31.083Z,1.25
2018-02-23T14:18:59.435Z,1.50
2018-02-23T14:21:27.035Z,1.92
2018-02-23T14:23:55.725Z,1.50
2018-02-23T14:26:23.314Z,2.20
2018-02-23T14:28:50.895Z,1.95
2018-02-23T14:31:18.697Z,2.50
2018-02-23T14:33:47.047Z,4.12
2018-02-23T14:36:14.637Z,3.12
2018-02-23T14:38:43.291Z,2.95
2018-02-23T14:41:10.834Z,2.12
2018-02-23T14:43:38.402Z,2.50
2018-02-23T14:46:06.013Z,2.15
2018-02-23T14:48:45.345Z,2.58
2018-02-23T14:51:13.134Z,3.05
2018-02-23T14:53:40.688Z,2.25
2018-02-23T14:56:08.233Z,2.00
2018-02-23T14:58:36.053Z,1.65
2018-02-23T15:01:03.631Z,1.15
2018-02-23T15:03:34.950Z,1.73
2018-02-23T15:06:02.731Z,4.55
2018-02-23T15:08:30.277Z,1.60
2018-02-23T15:10:57.822Z,2.45
2018-02-23T15:13:25.527Z,1.92
2018-02-23T15:15:53.077Z,3.80
2018-02-23T15:18:20.630Z,1.75
2018-02-23T15:20:48.545Z,5.80
2018-02-23T15:23:22.329Z,4.80
2018-02-23T15:25:51.181Z,6.57
2018-02-23T15:28:18.738Z,11.63
2018-02-23T15:30:58.390Z,12.88
2018-02-23T15:33:25.939Z,4.95
2018-02-23T15:35:53.716Z,5.07
2018-02-23T15:38:21.577Z,2.67
2018-02-23T15:40:49.126Z,2.70
2018-02-23T15:43:16.678Z,3.80
2018-02-23T15:45:44.374Z,3.65
2018-02-23T15:48:18.515Z,7.97
2018-02-23T15:50:51.953Z,19.48
2018-02-23T15:53:19.542Z,5.93
2018-02-23T15:55:47.124Z,2.28
2018-02-23T15:58:18.439Z,1.90
2018-02-23T16:00:45.991Z,3.28
2018-02-23T16:03:13.542Z,3.00
2018-02-23T16:05:41.167Z,4.65
2018-02-23T16:08:08.710Z,5.43
2018-02-23T16:10:37.118Z,4.80
2018-02-23T16:13:05.042Z,2.85
2018-02-23T16:15:32.618Z,5.75
2018-02-23T16:18:00.170Z,5.65
2018-02-23T16:20:28.725Z,2.33
2018-02-23T16:22:56.453Z,4.07
2018-02-23T16:25:24.014Z,4.22
2018-02-23T16:27:52.022Z,2.67
2018-02-23T16:30:19.578Z,4.22
2018-02-23T16:32:47.127Z,2.05
2018-02-23T16:35:15.002Z,5.30
2018-02-23T16:37:42.555Z,2.65
2018-02-23T16:40:10.103Z,2.25
2018-02-23T16:42:38.053Z,3.35
2018-02-23T16:45:17.328Z,2.50
2018-02-23T16:47:47.889Z,5.47
2018-02-23T16:50:16.207Z,28.48
2018-02-23T16:52:43.968Z,3.95
2018-02-23T16:55:11.594Z,4.75
2018-02-23T16:57:39.135Z,5.03
2018-02-23T17:00:06.962Z,2.85
2018-02-23T17:02:34.561Z,4.53
2018-02-23T17:05:02.104Z,4.30
2018-02-23T17:07:29.652Z,2.45
2018-02-23T17:09:57.431Z,3.22
2018-02-23T17:12:25.138Z,2.33
2018-02-23T17:14:52.690Z,6.80
2018-02-23T17:17:20.345Z,6.93
2018-02-23T17:19:48.665Z,5.97
2018-02-23T17:22:16.255Z,4.10
2018-02-23T17:24:48.834Z,2.40
2018-02-23T17:27:17.165Z,1.70
2018-02-23T17:29:44.841Z,2.87
2018-02-23T17:32:12.484Z,2.97
2018-02-23T17:34:40.027Z,6.68
2018-02-23T17:37:08.438Z,2.15
2018-02-23T17:39:36.172Z,2.55
2018-02-23T17:42:04.486Z,2.67
2018-02-23T17:44:37.388Z,3.95
2018-02-23T17:47:05.266Z,2.30
2018-02-23T17:49:32.885Z,1.98
2018-02-23T17:52:00.429Z,3.85
2018-02-23T17:54:28.248Z,8.13
2018-02-23T17:56:55.798Z,4.07
2018-02-23T17:59:23.342Z,2.30
2018-02-23T18:01:51.441Z,3.03
2018-02-23T18:04:22.046Z,3.17
2018-02-23T18:06:51.427Z,3.25
2018-02-23T18:09:21.054Z,2.20
2018-02-23T18:11:48.602Z,4.72
2018-02-23T18:14:18.103Z,3.45
2018-02-23T18:16:45.825Z,5.37
2018-02-23T18:19:13.418Z,3.53
2018-02-23T18:21:40.979Z,2.20
2018-02-23T18:24:12.694Z,4.28
2018-02-23T18:26:40.247Z,3.47
2018-02-23T18:29:07.970Z,1.83
2018-02-23T18:31:35.873Z,9.45
2018-02-23T18:34:03.414Z,6.10
2018-02-23T18:36:30.966Z,22.08
2018-02-23T18:38:58.565Z,3.25
2018-02-23T18:41:26.258Z,2.58
2018-02-23T18:43:53.819Z,10.57
2018-02-23T18:46:21.894Z,2.42
2018-02-23T18:48:49.790Z,3.78
2018-02-23T18:51:17.397Z,2.78
2018-02-23T18:53:46.503Z,3.72
2018-02-23T18:56:14.817Z,7.53
2018-02-23T18:58:42.398Z,10.00
2018-02-23T19:01:10.283Z,8.95
2018-02-23T19:03:37.922Z,13.65
2018-02-23T19:06:05.817Z,11.25
2018-02-23T19:08:33.701Z,6.32
2018-02-23T19:11:02.104Z,6.87
2018-02-23T19:13:29.726Z,5.57
2018-02-23T19:15:57.366Z,2.42
2018-02-23T19:18:25.067Z,2.42
2018-02-23T19:20:52.698Z,4.62
2018-02-23T19:23:21.288Z,3.12
2018-02-23T19:25:59.548Z,6.12
2018-02-23T19:28:27.322Z,4.82
2018-02-23T19:30:55.502Z,4.35
2018-02-23T19:33:23.078Z,6.45
2018-02-23T19:35:50.680Z,3.83
2018-02-23T19:38:19.037Z,2.22
2018-02-23T19:40:48.421Z,11.45
2018-02-23T19:43:16.054Z,2.58
2018-02-23T19:45:48.666Z,2.35
2018-02-23T19:48:16.221Z,5.20
2018-02-23T19:50:43.773Z,2.40
2018-02-23T19:53:11.665Z,1.30
2018-02-23T19:55:39.262Z,5.35
2018-02-23T19:58:06.814Z,19.52
2018-02-23T20:00:35.474Z,11.95
2018-02-23T20:03:03.018Z,5.03
2018-02-23T20:05:31.308Z,5.47
2018-02-23T20:08:01.145Z,4.15
2018-02-23T20:10:28.758Z,1.62
2018-02-23T20:12:56.322Z,2.45
2018-02-23T20:15:24.338Z,4.80
2018-02-23T20:17:52.252Z,1.80
2018-02-23T20:20:20.410Z,3.75
2018-02-23T20:22:48.213Z,3.10
2018-02-23T20:25:16.582Z,4.95
2018-02-23T20:27:44.241Z,2.90
2018-02-23T20:30:11.964Z,2.87
2018-02-23T20:32:39.884Z,3.90
2018-02-23T20:35:07.550Z,2.67
2018-02-23T20:37:35.388Z,4.25
2018-02-23T20:40:03.054Z,2.53
2018-02-23T20:42:31.003Z,6.40
2018-02-23T20:44:58.740Z,1.08
2018-02-23T20:47:27.048Z,1.67
2018-02-23T20:49:54.589Z,2.47
2018-02-23T20:52:22.266Z,1.40
2018-02-23T20:54:52.624Z,3.62
2018-02-23T20:57:21.336Z,6.15
2018-02-23T20:59:50.082Z,2.15
2018-02-23T21:02:17.624Z,1.67
2018-02-23T21:04:46.301Z,1.23
2018-02-23T21:07:13.934Z,1.98
2018-02-23T21:09:41.497Z,2.12
2018-02-23T21:12:10.205Z,1.87
2018-02-23T21:14:42.418Z,2.47
2018-02-23T21:17:12.589Z,1.70
2018-02-23T21:19:40.546Z,2.37
2018-02-23T21:22:12.079Z,1.37
2018-02-23T21:24:40.640Z,1.27
2018-02-23T21:27:08.193Z,2.28
2018-02-23T21:29:36.487Z,1.00
2018-02-23T21:32:04.107Z,8.57
2018-02-23T21:34:31.655Z,2.30
2018-02-23T21:36:59.459Z,1.35
2018-02-23T21:39:27.006Z,1.45
2018-02-23T21:41:55.588Z,4.57
2018-02-23T21:44:23.469Z,3.53
2018-02-23T21:46:51.016Z,1.75
2018-02-23T21:49:18.567Z,5.75
2018-02-23T21:51:46.424Z,3.00
2018-02-23T21:54:14.089Z,1.50
2018-02-23T21:56:41.686Z,5.87
2018-02-23T21:59:09.281Z,6.53
2018-02-23T22:01:37.594Z,3.75
2018-02-23T22:04:08.689Z,1.55
2018-02-23T22:06:37.063Z,2.17
2018-02-23T22:09:04.613Z,6.82
2018-02-23T22:11:32.162Z,5.75
2018-02-23T22:13:59.773Z,2.67
2018-02-23T22:16:27.344Z,2.95
2018-02-23T22:18:54.899Z,6.62
2018-02-23T22:21:22.488Z,2.65
2018-02-23T22:23:50.050Z,1.40
2018-02-23T22:26:17.601Z,2.30
2018-02-23T22:28:45.209Z,4.30
2018-02-23T22:31:12.768Z,2.95
2018-02-23T22:33:41.087Z,1.12
2018-02-23T22:36:12.465Z,2.65
2018-02-23T22:38:40.008Z,6.35
2018-02-23T22:41:08.061Z,2.53
2018-02-23T22:43:36.036Z,4.30
2018-02-23T22:46:03.622Z,1.95
2018-02-23T22:48:32.306Z,2.80
2018-02-23T22:51:02.423Z,1.92
2018-02-23T22:53:29.966Z,1.30
2018-02-23T22:55:58.577Z,2.78
2018-02-23T22:58:27.713Z,7.45
2018-02-23T23:00:55.981Z,4.22
2018-02-23T23:03:24.297Z,1.00
2018-02-23T23:05:53.449Z,1.20
2018-02-23T23:08:20.993Z,1.25
2018-02-23T23:10:49.299Z,1.37
2018-02-23T23:13:16.855Z,1.52
2018-02-23T23:15:44.373Z,1.33
2018-02-23T23:18:12.833Z,1.00
2018-02-23T23:20:41.294Z,1.15
2018-02-23T23:23:08.822Z,0.95
2018-02-23T23:25:37.109Z,3.17
2018-02-23T23:28:05.641Z,9.55
2018-02-23T23:30:33.844Z,1.30
2018-02-23T23:33:01.381Z,2.72
2018-02-23T23:35:30.478Z,9.55
2018-02-23T23:37:58.446Z,1.25
2018-02-23T23:40:26.028Z,1.15
2018-02-23T23:42:53.541Z,2.67
2018-02-23T23:45:21.398Z,1.35
2018-02-23T23:47:48.912Z,2.53
2018-02-23T23:50:17.228Z,1.95
2018-02-23T23:52:45.116Z,1.30
2018-02-23T23:55:13.081Z,4.15
2018-02-23T23:57:40.605Z,1.42
